createdAt,value
2023-01-08T04:36:25.239Z,93.53
2023-01-08T04:38:53.291Z,93.65
2023-01-08T04:41:21.368Z,93.71
2023-01-08T04:43:49.215Z,93.74
2023-01-08T04:46:17.209Z,93.76
2023-01-08T04:48:44.981Z,93.79
2023-01-08T04:51:12.864Z,93.84
2023-01-08T04:53:41.724Z,93.86
2023-01-08T04:56:10.839Z,93.89
2023-01-08T04:58:39.348Z,93.93
2023-01-08T05:01:12.345Z,93.94
2023-01-08T05:03:40.620Z,93.98
2023-01-08T05:06:08.971Z,93.98
2023-01-08T05:08:36.875Z,94.02
2023-01-08T05:11:04.874Z,94.06
2023-01-08T05:13:32.798Z,94.10
2023-01-08T05:16:01.384Z,94.15
2023-01-08T05:18:29.804Z,94.15
2023-01-08T05:21:02.194Z,94.19
2023-01-08T05:23:31.500Z,94.18
2023-01-08T05:26:01.116Z,94.18
2023-01-08T05:28:29.259Z,94.13
2023-01-08T05:30:58.056Z,94.08
2023-01-08T05:33:26.338Z,94.00
2023-01-08T05:35:54.682Z,93.87
2023-01-08T05:38:23.162Z,93.76
2023-01-08T05:40:54.388Z,93.61
2023-01-08T05:43:22.522Z,93.51
2023-01-08T05:45:50.346Z,93.29
2023-01-08T05:48:18.541Z,93.05
2023-01-08T05:50:49.413Z,92.91
2023-01-08T05:53:42.608Z,92.80
2023-01-08T05:56:11.861Z,92.68
2023-01-08T05:58:39.622Z,92.45
2023-01-08T06:01:13.557Z,92.38
2023-01-08T06:03:41.496Z,92.39
2023-01-08T06:06:11.062Z,92.38
2023-01-08T06:08:39.663Z,92.32
2023-01-08T06:11:11.064Z,92.25
2023-01-08T06:13:42.370Z,92.02
2023-01-08T06:16:10.660Z,91.90
2023-01-08T06:18:39.142Z,91.84
2023-01-08T06:21:07.128Z,91.72
2023-01-08T06:23:35.094Z,91.36
2023-01-08T06:26:04.318Z,91.33
2023-01-08T06:28:33.084Z,91.41
2023-01-08T06:31:01.813Z,91.47
2023-01-08T06:33:30.731Z,91.52
2023-01-08T06:36:04.460Z,91.57
2023-01-08T06:38:35.617Z,91.64
2023-01-08T06:41:08.816Z,91.60
2023-01-08T06:43:38.098Z,91.64
2023-01-08T06:46:08.836Z,91.63
2023-01-08T06:48:37.656Z,91.67
2023-01-08T06:51:06.449Z,91.63
2023-01-08T06:53:34.361Z,91.58
2023-01-08T06:56:03.747Z,91.55
2023-01-08T06:58:31.678Z,91.35
2023-01-08T07:00:59.674Z,91.36
2023-01-08T07:03:27.704Z,91.33
2023-01-08T07:05:56.799Z,91.29
2023-01-08T07:08:24.686Z,91.17
2023-01-08T07:10:52.475Z,91.19
2023-01-08T07:13:22.985Z,91.06
2023-01-08T07:15:51.666Z,91.00
2023-01-08T07:18:19.669Z,91.07
2023-01-08T07:20:50.660Z,91.10
2023-01-08T07:23:18.419Z,91.15
2023-01-08T07:25:47.432Z,91.26
2023-01-08T07:28:15.650Z,91.31
2023-01-08T07:30:44.961Z,91.35
2023-01-08T07:33:12.798Z,91.38
2023-01-08T07:35:40.848Z,91.38
2023-01-08T07:38:08.741Z,91.40
2023-01-08T07:40:39.143Z,91.48
2023-01-08T07:43:07.372Z,91.56
2023-01-08T07:45:35.267Z,91.61
2023-01-08T07:48:03.051Z,91.54
2023-01-08T07:50:31.167Z,91.45
2023-01-08T07:53:02.523Z,91.30
2023-01-08T07:55:31.042Z,91.36
2023-01-08T07:57:59.131Z,91.39
2023-01-08T08:00:27.110Z,91.24
2023-01-08T08:02:55.358Z,91.20
2023-01-08T08:05:24.146Z,91.31
2023-01-08T08:07:52.049Z,91.27
2023-01-08T08:10:19.873Z,91.17
2023-01-08T08:12:47.800Z,90.96
2023-01-08T08:15:15.740Z,90.95
2023-01-08T08:17:48.312Z,90.92
2023-01-08T08:20:16.468Z,90.85
2023-01-08T08:22:44.255Z,91.00
2023-01-08T08:25:15.324Z,90.87
2023-01-08T08:27:44.317Z,90.85
2023-01-08T08:30:13.020Z,90.87
2023-01-08T08:32:40.831Z,90.87
2023-01-08T08:35:09.257Z,90.80
2023-01-08T08:37:37.154Z,90.73
2023-01-08T08:40:05.510Z,90.82
2023-01-08T08:42:33.319Z,90.81
2023-01-08T08:45:01.156Z,90.97
2023-01-08T08:47:28.937Z,91.05
2023-01-08T08:49:56.720Z,90.83
2023-01-08T08:52:24.626Z,90.49
2023-01-08T08:54:52.435Z,90.39
2023-01-08T08:57:20.194Z,90.23
2023-01-08T08:59:48.337Z,90.35
2023-01-08T09:02:16.480Z,90.48
2023-01-08T09:04:44.453Z,90.23
2023-01-08T09:07:12.283Z,90.02
2023-01-08T09:09:40.050Z,89.96
2023-01-08T09:12:08.234Z,89.86
2023-01-08T09:14:36.218Z,89.96
2023-01-08T09:17:04.052Z,90.20
2023-01-08T09:19:31.852Z,89.95
2023-01-08T09:22:01.252Z,89.78
2023-01-08T09:24:32.201Z,89.70
2023-01-08T09:27:00.120Z,89.84
2023-01-08T09:29:27.889Z,89.56
2023-01-08T09:31:55.941Z,89.83
2023-01-08T09:34:23.804Z,89.83
2023-01-08T09:36:52.416Z,89.61
2023-01-08T09:39:20.527Z,89.49
2023-01-08T09:41:58.243Z,89.60
2023-01-08T09:44:29.898Z,89.43
2023-01-08T09:46:58.715Z,89.38
2023-01-08T09:49:38.656Z,89.28
2023-01-08T09:52:06.873Z,89.20
2023-01-08T09:54:34.747Z,89.14
2023-01-08T09:57:02.829Z,89.16
2023-01-08T09:59:31.224Z,88.88
2023-01-08T10:01:59.745Z,89.00
2023-01-08T10:04:29.955Z,88.88
2023-01-08T10:07:11.046Z,88.87
2023-01-08T10:09:40.876Z,88.70
2023-01-08T10:12:12.883Z,88.49
2023-01-08T10:14:48.098Z,88.14
2023-01-08T10:17:39.231Z,88.05
2023-01-08T10:20:16.078Z,87.78
2023-01-08T10:22:44.671Z,87.74
2023-01-08T10:25:16.582Z,87.41
2023-01-08T10:27:53.497Z,87.58
2023-01-08T10:30:29.035Z,87.32
2023-01-08T10:33:02.666Z,87.11
2023-01-08T10:35:36.036Z,87.15
2023-01-08T10:38:04.681Z,87.21
2023-01-08T10:40:35.564Z,87.06
2023-01-08T10:43:13.290Z,87.03
2023-01-08T10:45:43.862Z,86.62
2023-01-08T10:48:18.222Z,86.47
2023-01-08T10:50:46.215Z,86.64
2023-01-08T10:53:25.953Z,86.52
2023-01-08T10:56:01.796Z,85.90
2023-01-08T10:58:30.648Z,85.99
2023-01-08T11:04:36.764Z,86.20
2023-01-08T11:07:06.939Z,85.90
2023-01-08T11:09:41.814Z,86.32
2023-01-08T11:12:41.792Z,85.97
2023-01-08T11:15:17.840Z,86.13
2023-01-08T11:17:46.319Z,86.08
2023-01-08T11:20:22.358Z,85.64
2023-01-08T11:22:50.754Z,85.64
2023-01-08T11:25:28.868Z,85.93
2023-01-08T11:27:58.500Z,86.32
2023-01-08T11:30:27.925Z,86.29
2023-01-08T11:33:18.405Z,85.98
2023-01-08T11:38:41.475Z,86.12
2023-01-08T11:41:09.300Z,86.34
2023-01-08T11:44:23.703Z,86.10
2023-01-08T11:47:05.086Z,85.81
2023-01-08T11:49:32.866Z,86.03
2023-01-08T11:52:00.756Z,85.43
2023-01-08T11:54:46.911Z,85.62
2023-01-08T11:57:23.727Z,86.19
2023-01-08T12:00:14.385Z,86.31
2023-01-08T12:03:01.418Z,86.08
2023-01-08T12:06:02.415Z,86.10
2023-01-08T12:08:44.393Z,86.08
2023-01-08T12:11:26.681Z,86.11
2023-01-08T12:14:25.492Z,85.84
2023-01-08T12:17:46.198Z,86.10
2023-01-08T12:20:26.372Z,86.03
2023-01-08T12:22:57.165Z,85.84
2023-01-08T12:25:46.838Z,86.27
2023-01-08T12:28:30.028Z,86.41
2023-01-08T12:31:18.196Z,86.22
2023-01-08T12:34:05.350Z,86.34
2023-01-08T12:36:55.280Z,85.99
2023-01-08T12:39:33.922Z,86.37
2023-01-08T12:42:24.626Z,86.36
2023-01-08T12:44:55.178Z,86.24
2023-01-08T12:47:28.150Z,86.23
2023-01-08T12:50:20.743Z,86.33
2023-01-08T12:52:56.176Z,86.32
2023-01-08T12:55:38.916Z,86.43
2023-01-08T12:58:31.730Z,86.24
2023-01-08T13:01:17.309Z,86.52
2023-01-08T13:03:45.715Z,86.49
2023-01-08T13:06:16.967Z,86.49
2023-01-08T13:08:52.318Z,86.32
2023-01-08T13:11:37.003Z,86.24
2023-01-08T13:14:08.885Z,86.25
2023-01-08T13:16:46.771Z,85.97
2023-01-08T13:19:26.125Z,86.13
2023-01-08T13:21:57.500Z,86.41
2023-01-08T13:24:29.534Z,86.32
2023-01-08T13:27:09.640Z,86.34
2023-01-08T13:29:40.422Z,86.47
2023-01-08T13:32:39.532Z,86.40
2023-01-08T13:35:16.544Z,86.48
2023-01-08T13:37:50.927Z,86.48
2023-01-08T13:40:43.794Z,86.46
2023-01-08T13:43:25.204Z,86.67
2023-01-08T13:46:02.671Z,86.68
2023-01-08T13:48:49.659Z,86.76
2023-01-08T13:54:40.275Z,86.75
2023-01-08T13:57:14.928Z,86.91
2023-01-08T13:59:49.595Z,86.95
2023-01-08T14:02:44.550Z,87.09
2023-01-08T14:05:29.821Z,87.14
2023-01-08T14:07:59.123Z,87.06
2023-01-08T14:10:29.430Z,87.08
2023-01-08T14:13:07.219Z,87.18
2023-01-08T14:15:38.710Z,87.09
2023-01-08T14:18:06.891Z,87.07
2023-01-08T14:20:39.381Z,87.14
2023-01-08T14:23:20.502Z,87.34
2023-01-08T14:25:49.596Z,87.35
2023-01-08T14:28:22.879Z,87.43
2023-01-08T14:30:53.583Z,87.43
2023-01-08T14:33:32.373Z,87.48
2023-01-08T14:36:02.340Z,87.51
2023-01-08T14:38:30.329Z,87.47
2023-01-08T14:41:03.029Z,87.54
2023-01-08T14:43:35.609Z,87.71
2023-01-08T14:46:04.358Z,87.78
2023-01-08T14:48:43.143Z,87.74
2023-01-08T14:51:16.766Z,87.69
2023-01-08T14:53:48.431Z,87.81
2023-01-08T14:56:20.083Z,87.75
2023-01-08T14:58:49.501Z,87.77
2023-01-08T15:01:23.801Z,87.82
2023-01-08T15:04:04.189Z,87.88
2023-01-08T15:06:33.828Z,87.85
2023-01-08T15:09:01.850Z,87.90
2023-01-08T15:11:53.425Z,87.94
2023-01-08T15:14:26.152Z,87.94
2023-01-08T15:16:57.924Z,88.01
2023-01-08T15:19:28.873Z,88.03
2023-01-08T15:21:59.531Z,88.03
2023-01-08T15:24:36.062Z,88.00
2023-01-08T15:27:10.073Z,87.99
2023-01-08T15:29:41.954Z,88.09
2023-01-08T15:32:18.405Z,88.04
2023-01-08T15:34:46.601Z,88.05
2023-01-08T15:37:15.615Z,88.02
2023-01-08T15:39:43.569Z,87.96
2023-01-08T15:42:43.255Z,87.94
2023-01-08T15:45:14.092Z,88.15
2023-01-08T15:47:42.017Z,88.15
2023-01-08T15:50:10.594Z,88.16
2023-01-08T15:52:41.667Z,88.19
2023-01-08T15:55:18.604Z,88.17
2023-01-08T15:57:46.925Z,88.17
2023-01-08T16:00:16.501Z,88.06
2023-01-08T16:02:47.453Z,88.09
2023-01-08T16:05:20.069Z,88.19
2023-01-08T16:07:48.481Z,88.02
2023-01-08T16:10:17.616Z,88.12
2023-01-08T16:12:45.660Z,88.14
2023-01-08T16:15:15.336Z,88.07
2023-01-08T16:17:44.123Z,88.13
2023-01-08T16:20:13.340Z,88.05
2023-01-08T16:22:41.747Z,88.02
2023-01-08T16:25:09.967Z,88.09
2023-01-08T16:27:39.623Z,88.14
2023-01-08T16:30:10.467Z,88.09
2023-01-08T16:32:38.265Z,88.03
2023-01-08T16:35:06.738Z,88.05
2023-01-08T16:37:34.573Z,88.00
2023-01-08T16:40:02.375Z,87.97
2023-01-08T16:42:30.330Z,87.95
2023-01-08T16:44:58.174Z,88.00
2023-01-08T16:47:26.010Z,88.05
2023-01-08T16:49:54.356Z,87.99
2023-01-08T16:52:22.509Z,87.91
2023-01-08T16:54:50.373Z,87.72
2023-01-08T16:57:18.187Z,87.79
2023-01-08T16:59:46.537Z,87.83
2023-01-08T17:02:14.389Z,87.76
2023-01-08T17:04:42.234Z,87.85
2023-01-08T17:07:13.570Z,87.95
2023-01-08T17:09:41.456Z,87.88
2023-01-08T17:12:09.265Z,87.96
2023-01-08T17:14:37.508Z,87.96
2023-01-08T17:17:05.431Z,87.81
2023-01-08T17:19:33.475Z,87.63
2023-01-08T17:22:01.268Z,87.65
2023-01-08T17:24:29.035Z,87.78
2023-01-08T17:26:57.972Z,87.71
2023-01-08T17:29:25.899Z,87.80
2023-01-08T17:31:53.856Z,87.79
2023-01-08T17:34:21.730Z,87.91
2023-01-08T17:36:49.547Z,87.80
2023-01-08T17:39:17.462Z,87.79
2023-01-08T17:42:03.709Z,87.89
2023-01-08T17:44:31.659Z,87.79
2023-01-08T17:46:59.498Z,87.85
2023-01-08T17:49:27.314Z,87.92
2023-01-08T17:51:57.032Z,88.03
2023-01-08T17:54:25.122Z,88.04
2023-01-08T17:56:53.777Z,88.04
2023-01-08T17:59:21.897Z,88.04
2023-01-08T18:01:52.207Z,88.09
2023-01-08T18:04:20.339Z,88.11
2023-01-08T18:06:48.239Z,88.12
2023-01-08T18:09:16.112Z,88.13
2023-01-08T18:11:44.016Z,88.21
2023-01-08T18:14:13.427Z,88.23
2023-01-08T18:16:45.577Z,88.26
2023-01-08T18:19:15.952Z,88.28
2023-01-08T18:21:44.588Z,88.31
2023-01-08T18:24:13.280Z,88.35
2023-01-08T18:26:41.555Z,88.34
2023-01-08T18:29:09.632Z,88.28
2023-01-08T18:31:37.607Z,88.27
2023-01-08T18:34:05.669Z,88.32
2023-01-08T18:36:33.541Z,88.28
2023-01-08T18:39:01.455Z,88.26
2023-01-08T18:41:48.173Z,88.37
2023-01-08T18:44:16.197Z,88.34
2023-01-08T18:46:45.467Z,88.34
2023-01-08T18:49:14.996Z,88.40
2023-01-08T18:51:43.371Z,88.30
2023-01-08T18:54:12.946Z,88.33
2023-01-08T18:56:40.754Z,88.46
2023-01-08T18:59:10.309Z,88.49
2023-01-08T19:04:36.387Z,88.48
2023-01-08T19:07:04.235Z,88.48
2023-01-08T19:09:32.065Z,88.56
2023-01-08T19:11:59.965Z,88.54
2023-01-08T19:14:30.831Z,88.53
2023-01-08T19:16:59.028Z,88.59
2023-01-08T19:19:28.403Z,88.67
2023-01-08T19:21:57.240Z,88.68
2023-01-08T19:24:25.225Z,88.66
2023-01-08T19:26:53.148Z,88.68
2023-01-08T19:29:20.972Z,88.69
2023-01-08T19:31:48.869Z,88.72
2023-01-08T19:34:16.652Z,88.73
2023-01-08T19:36:44.673Z,88.78
2023-01-08T19:39:12.885Z,88.81
2023-01-08T19:41:59.426Z,88.83
2023-01-08T19:44:27.273Z,88.86
2023-01-08T19:46:55.129Z,88.85
2023-01-08T19:49:23.861Z,88.83
2023-01-08T19:51:52.635Z,88.85
2023-01-08T19:54:23.689Z,88.85
2023-01-08T19:56:52.860Z,88.87
2023-01-08T19:59:20.777Z,88.85
2023-01-08T20:01:49.025Z,88.90
2023-01-08T20:04:17.129Z,88.91
2023-01-08T20:06:45.079Z,88.97
2023-01-08T20:10:04.615Z,88.98
2023-01-08T20:12:32.694Z,89.01
2023-01-08T20:15:00.558Z,89.04
2023-01-08T20:17:28.470Z,89.12
2023-01-08T20:19:56.330Z,89.14
2023-01-08T20:22:24.970Z,89.16
2023-01-08T20:24:53.272Z,89.21
2023-01-08T20:27:21.061Z,89.21
2023-01-08T20:29:48.890Z,89.21
2023-01-08T20:32:16.740Z,89.24
2023-01-08T20:34:44.689Z,89.24
2023-01-08T20:37:12.571Z,89.28
2023-01-08T20:39:41.029Z,89.35
2023-01-08T20:42:10.075Z,89.37
2023-01-08T20:44:38.094Z,89.37
2023-01-08T20:47:05.993Z,89.37
2023-01-08T20:49:33.797Z,89.40
2023-01-08T20:52:01.678Z,89.45
2023-01-08T20:54:30.343Z,89.51
2023-01-08T20:56:59.607Z,89.54
2023-01-08T20:59:28.250Z,89.63
2023-01-08T21:01:57.298Z,89.71
2023-01-08T21:04:25.728Z,89.78
2023-01-08T21:06:53.855Z,89.88
2023-01-08T21:09:21.866Z,89.91
2023-01-08T21:11:50.753Z,89.95
2023-01-08T21:14:18.691Z,90.10
2023-01-08T21:16:46.471Z,90.14
2023-01-08T21:19:15.414Z,90.16
2023-01-08T21:21:43.431Z,90.18
2023-01-08T21:24:12.991Z,90.24
2023-01-08T21:26:40.932Z,90.30
2023-01-08T21:29:09.229Z,90.39
2023-01-08T21:31:38.329Z,90.46
2023-01-08T21:34:08.780Z,90.53
2023-01-08T21:36:39.144Z,90.56
2023-01-08T21:39:07.369Z,90.58
2023-01-08T21:41:53.820Z,90.69
2023-01-08T21:44:42.120Z,90.79
2023-01-08T21:47:13.286Z,90.85
2023-01-08T21:49:42.105Z,90.98
2023-01-08T21:52:28.429Z,91.02
2023-01-08T21:54:58.159Z,91.09
2023-01-08T21:57:28.141Z,91.18
2023-01-08T21:59:56.333Z,91.25
2023-01-08T22:02:26.152Z,91.31
2023-01-08T22:04:56.754Z,91.29
2023-01-08T22:07:25.824Z,91.36
2023-01-08T22:09:53.785Z,91.39
2023-01-08T22:12:26.049Z,91.42
2023-01-08T22:14:55.218Z,91.43
2023-01-08T22:17:25.023Z,91.45
2023-01-08T22:19:53.511Z,91.47
2023-01-08T22:22:21.472Z,91.47
2023-01-08T22:24:51.719Z,91.54
2023-01-08T22:27:19.671Z,91.55
2023-01-08T22:29:48.920Z,91.56
2023-01-08T22:32:17.010Z,91.59
2023-01-08T22:34:44.967Z,91.61
2023-01-08T22:37:12.976Z,91.61
2023-01-08T22:39:41.714Z,91.65
2023-01-08T22:42:09.709Z,91.64
2023-01-08T22:44:37.572Z,91.66
2023-01-08T22:47:06.289Z,91.72
2023-01-08T22:49:34.336Z,91.71
2023-01-08T22:52:02.267Z,91.72
2023-01-08T22:54:30.412Z,91.72
2023-01-08T22:56:58.379Z,91.72
2023-01-08T22:59:26.342Z,91.74
2023-01-08T23:01:54.419Z,91.75
2023-01-08T23:04:22.244Z,91.82
2023-01-08T23:06:50.001Z,91.78
2023-01-08T23:09:18.202Z,91.87
2023-01-08T23:11:46.019Z,91.88
2023-01-08T23:14:15.979Z,91.88
2023-01-08T23:16:44.319Z,91.93
2023-01-08T23:19:12.383Z,91.95
2023-01-08T23:21:40.355Z,91.98
2023-01-08T23:24:11.869Z,91.98
2023-01-08T23:26:39.888Z,92.02
2023-01-08T23:29:07.819Z,92.08
2023-01-08T23:31:37.827Z,92.09
2023-01-08T23:34:06.497Z,92.14
2023-01-08T23:36:34.442Z,92.13
2023-01-08T23:39:02.371Z,92.14
2023-01-08T23:41:35.057Z,92.18
2023-01-08T23:44:06.477Z,92.20
2023-01-08T23:46:34.976Z,92.23
2023-01-08T23:49:03.091Z,92.22
2023-01-08T23:51:30.878Z,92.23
2023-01-08T23:53:58.970Z,92.25
2023-01-08T23:56:27.701Z,92.26
2023-01-08T23:58:56.642Z,92.27
